PWSweather.com
Personal Weather Stations
Station Observations
KMIEASTT1
Tawas Bay, East Tawas, MI 48730

Tawas BayEast Tawas, MI 48730

Lat: 44.28, Lon: -83.48

Elevation: 600

Station Type: Davis VantagePro

http://www.tawasbayweather.com

High Low Average
Temperature 35.0°F1.7°C 24.7°F-4.1°C 32.3°F0.2°C
Dew Point 33.7°F0.9°C 22.5°F-5.3°C 30.7°F-0.7°C
Winds 8.0 mph 12.9 kmh Calm Calm 2.0 mph S3.2 kmh S
Wind Gusts 11.0 mph17.7 kmh 1.0 mph1.6 kmh 5.0 mph8.0 kmh
Humidity 96% 89% 94%
Pressure 29.84 in1010.5 mb 29.47 in998.0 mb -
Precipitation 0.00 in0.0 mm - -
Hour Temp Dew Point Humidity Winds Wind Gusts Pressure Precip Precip Rate Daily Precip Total
12:00 AM 34.0°F1.1°C 30.6°F-0.8°C 87% 1.0 mph N1.6 kmh N 1.0 mph1.6 kmh 29.84 in1010.5 mb 0.00 in0.0 mm 0.00 in/hr0.0 mm/hr 0.00 in0.0 mm
12:15 AM 34.1°F1.2°C 30.9°F-0.6°C 88% Calm Calm 1.0 mph1.6 kmh 29.84 in1010.5 mb 0.00 in0.0 mm 0.00 in/hr0.0 mm/hr 0.00 in0.0 mm
12:30 AM 34.3°F1.3°C 31.1°F-0.5°C 88% Calm Calm 1.0 mph1.6 kmh 29.84 in1010.5 mb 0.00 in0.0 mm 0.00 in/hr0.0 mm/hr 0.00 in0.0 mm
12:45 AM 34.1°F1.2°C 31.2°F-0.4°C 89% 1.0 mph N1.6 kmh N 1.0 mph1.6 kmh 29.84 in1010.5 mb 0.00 in0.0 mm 0.00 in/hr0.0 mm/hr 0.00 in0.0 mm
01:01 AM 33.7°F0.9°C 30.8°F-0.7°C 89% Calm Calm 3.0 mph4.8 kmh 29.84 in1010.5 mb 0.00 in0.0 mm 0.00 in/hr0.0 mm/hr 0.00 in0.0 mm
01:15 AM 33.9°F1.1°C 31.6°F-0.2°C 91% 1.0 mph NE1.6 kmh NE 4.0 mph6.4 kmh 29.84 in1010.5 mb 0.00 in0.0 mm 0.00 in/hr0.0 mm/hr 0.00 in0.0 mm
01:30 AM 34.3°F1.3°C 31.7°F-0.2°C 90% 2.0 mph NE3.2 kmh NE 3.0 mph4.8 kmh 29.84 in1010.5 mb 0.00 in0.0 mm 0.00 in/hr0.0 mm/hr 0.00 in0.0 mm
01:45 AM 34.2°F1.2°C 31.6°F-0.2°C 90% Calm Calm 2.0 mph3.2 kmh 29.84 in1010.5 mb 0.00 in0.0 mm 0.00 in/hr0.0 mm/hr 0.00 in0.0 mm
02:15 AM 34.5°F1.4°C 31.9°F-0.1°C 90% Calm Calm 1.0 mph1.6 kmh 29.82 in1009.8 mb 0.00 in0.0 mm 0.00 in/hr0.0 mm/hr 0.00 in0.0 mm
02:30 AM 34.4°F1.3°C 31.8°F-0.1°C 90% 1.0 mph NNE1.6 kmh NNE 1.0 mph1.6 kmh 29.82 in1009.8 mb 0.00 in0.0 mm 0.00 in/hr0.0 mm/hr 0.00 in0.0 mm
02:45 AM 34.3°F1.3°C 32.0°F0.0°C 91% 1.0 mph NE1.6 kmh NE 3.0 mph4.8 kmh 29.80 in1009.1 mb 0.00 in0.0 mm 0.00 in/hr0.0 mm/hr 0.00 in0.0 mm
03:00 AM 34.3°F1.3°C 32.2°F0.1°C 92% 1.0 mph NE1.6 kmh NE 2.0 mph3.2 kmh 29.78 in1008.5 mb 0.00 in0.0 mm 0.00 in/hr0.0 mm/hr 0.00 in0.0 mm
03:15 AM 34.0°F1.1°C 32.2°F0.1°C 93% Calm Calm 2.0 mph3.2 kmh 29.82 in1009.8 mb 0.00 in0.0 mm 0.00 in/hr0.0 mm/hr 0.00 in0.0 mm
03:30 AM 34.3°F1.3°C 32.5°F0.3°C 93% Calm Calm 2.0 mph3.2 kmh 29.82 in1009.8 mb 0.00 in0.0 mm 0.00 in/hr0.0 mm/hr 0.00 in0.0 mm
03:45 AM 34.4°F1.3°C 32.3°F0.2°C 92% Calm Calm 3.0 mph4.8 kmh 29.81 in1009.5 mb 0.00 in0.0 mm 0.00 in/hr0.0 mm/hr 0.00 in0.0 mm
04:01 AM 34.2°F1.2°C 32.1°F0.1°C 92% 2.0 mph NNE3.2 kmh NNE 3.0 mph4.8 kmh 29.80 in1009.1 mb 0.00 in0.0 mm 0.00 in/hr0.0 mm/hr 0.00 in0.0 mm
04:15 AM 33.9°F1.1°C 31.8°F-0.1°C 92% Calm Calm 3.0 mph4.8 kmh 29.79 in1008.8 mb 0.00 in0.0 mm 0.00 in/hr0.0 mm/hr 0.00 in0.0 mm
04:30 AM 33.8°F1.0°C 31.7°F-0.2°C 92% 2.0 mph NNW3.2 kmh NNW 4.0 mph6.4 kmh 29.79 in1008.8 mb 0.00 in0.0 mm 0.00 in/hr0.0 mm/hr 0.00 in0.0 mm
04:45 AM 33.8°F1.0°C 31.7°F-0.2°C 92% 2.0 mph N3.2 kmh N 3.0 mph4.8 kmh 29.79 in1008.8 mb 0.00 in0.0 mm 0.00 in/hr0.0 mm/hr 0.00 in0.0 mm
05:01 AM 33.5°F0.8°C 31.4°F-0.3°C 92% 3.0 mph NNW4.8 kmh NNW 3.0 mph4.8 kmh 29.79 in1008.8 mb 0.00 in0.0 mm 0.00 in/hr0.0 mm/hr 0.00 in0.0 mm
05:15 AM 33.3°F0.7°C 31.5°F-0.3°C 93% Calm Calm 4.0 mph6.4 kmh 29.78 in1008.5 mb 0.00 in0.0 mm 0.00 in/hr0.0 mm/hr 0.00 in0.0 mm
05:30 AM 33.2°F0.7°C 31.4°F-0.3°C 93% 1.0 mph NNE1.6 kmh NNE 6.0 mph9.7 kmh 29.76 in1007.8 mb 0.00 in0.0 mm 0.00 in/hr0.0 mm/hr 0.00 in0.0 mm
05:45 AM 33.2°F0.7°C 31.4°F-0.3°C 93% 1.0 mph N1.6 kmh N 3.0 mph4.8 kmh 29.76 in1007.8 mb 0.00 in0.0 mm 0.00 in/hr0.0 mm/hr 0.00 in0.0 mm
06:01 AM 33.4°F0.8°C 31.6°F-0.2°C 93% Calm Calm 3.0 mph4.8 kmh 29.76 in1007.8 mb 0.00 in0.0 mm 0.00 in/hr0.0 mm/hr 0.00 in0.0 mm
06:15 AM 33.6°F0.9°C 31.8°F-0.1°C 93% 1.0 mph N1.6 kmh N 3.0 mph4.8 kmh 29.75 in1007.5 mb 0.00 in0.0 mm 0.00 in/hr0.0 mm/hr 0.00 in0.0 mm
06:30 AM 33.8°F1.0°C 31.7°F-0.2°C 92% 1.0 mph N1.6 kmh N 2.0 mph3.2 kmh 29.74 in1007.1 mb 0.00 in0.0 mm 0.00 in/hr0.0 mm/hr 0.00 in0.0 mm
06:45 AM 33.8°F1.0°C 31.7°F-0.2°C 92% 2.0 mph NE3.2 kmh NE 3.0 mph4.8 kmh 29.74 in1007.1 mb 0.00 in0.0 mm 0.00 in/hr0.0 mm/hr 0.00 in0.0 mm
07:01 AM 33.8°F1.0°C 31.7°F-0.2°C 92% 2.0 mph N3.2 kmh N 4.0 mph6.4 kmh 29.73 in1006.8 mb 0.00 in0.0 mm 0.00 in/hr0.0 mm/hr 0.00 in0.0 mm
07:15 AM 33.9°F1.1°C 31.8°F-0.1°C 92% 1.0 mph N1.6 kmh N 2.0 mph3.2 kmh 29.73 in1006.8 mb 0.00 in0.0 mm 0.00 in/hr0.0 mm/hr 0.00 in0.0 mm
07:30 AM 33.9°F1.1°C 31.8°F-0.1°C 92% 2.0 mph N3.2 kmh N 3.0 mph4.8 kmh 29.72 in1006.4 mb 0.00 in0.0 mm 0.00 in/hr0.0 mm/hr 0.00 in0.0 mm
07:45 AM 33.8°F1.0°C 31.7°F-0.2°C 92% 1.0 mph N1.6 kmh N 4.0 mph6.4 kmh 29.70 in1005.8 mb 0.00 in0.0 mm 0.00 in/hr0.0 mm/hr 0.00 in0.0 mm
08:01 AM 33.7°F0.9°C 31.9°F-0.1°C 93% Calm Calm 2.0 mph3.2 kmh 29.70 in1005.8 mb 0.00 in0.0 mm 0.00 in/hr0.0 mm/hr 0.00 in0.0 mm
08:15 AM 33.9°F1.1°C 32.4°F0.2°C 94% 2.0 mph N3.2 kmh N 3.0 mph4.8 kmh 29.69 in1005.4 mb 0.00 in0.0 mm 0.00 in/hr0.0 mm/hr 0.00 in0.0 mm
08:31 AM 34.0°F1.1°C 32.5°F0.3°C 94% Calm Calm 2.0 mph3.2 kmh 29.68 in1005.1 mb 0.00 in0.0 mm 0.00 in/hr0.0 mm/hr 0.00 in0.0 mm
08:45 AM 34.3°F1.3°C 32.8°F0.4°C 94% Calm Calm 2.0 mph3.2 kmh 29.69 in1005.4 mb 0.00 in0.0 mm 0.00 in/hr0.0 mm/hr 0.00 in0.0 mm
09:01 AM 34.8°F1.6°C 33.5°F0.8°C 95% 2.0 mph NNW3.2 kmh NNW 3.0 mph4.8 kmh 29.69 in1005.4 mb 0.00 in0.0 mm 0.00 in/hr0.0 mm/hr 0.00 in0.0 mm
09:15 AM 34.9°F1.6°C 33.6°F0.9°C 95% Calm Calm 7.0 mph11.3 kmh 29.69 in1005.4 mb 0.00 in0.0 mm 0.00 in/hr0.0 mm/hr 0.00 in0.0 mm
09:30 AM 35.0°F1.7°C 33.7°F0.9°C 95% 5.0 mph NE8.0 kmh NE 6.0 mph9.7 kmh 29.69 in1005.4 mb 0.00 in0.0 mm 0.00 in/hr0.0 mm/hr 0.00 in0.0 mm
09:45 AM 34.8°F1.6°C 33.5°F0.8°C 95% 5.0 mph N8.0 kmh N 5.0 mph8.0 kmh 29.67 in1004.7 mb 0.00 in0.0 mm 0.00 in/hr0.0 mm/hr 0.00 in0.0 mm
10:01 AM 34.8°F1.6°C 33.5°F0.8°C 95% 3.0 mph NNE4.8 kmh NNE 7.0 mph11.3 kmh 29.65 in1004.1 mb 0.00 in0.0 mm 0.00 in/hr0.0 mm/hr 0.00 in0.0 mm
10:15 AM 34.8°F1.6°C 33.5°F0.8°C 95% 2.0 mph NE3.2 kmh NE 4.0 mph6.4 kmh 29.64 in1003.7 mb 0.00 in0.0 mm 0.00 in/hr0.0 mm/hr 0.00 in0.0 mm
10:31 AM 34.5°F1.4°C 33.2°F0.7°C 95% 1.0 mph NNE1.6 kmh NNE 5.0 mph8.0 kmh 29.64 in1003.7 mb 0.00 in0.0 mm 0.00 in/hr0.0 mm/hr 0.00 in0.0 mm
10:45 AM 34.4°F1.3°C 33.1°F0.6°C 95% 2.0 mph NE3.2 kmh NE 4.0 mph6.4 kmh 29.64 in1003.7 mb 0.01 in0.3 mm 0.04 in/hr1.0 mm/hr 0.01 in0.3 mm
11:00 AM 34.1°F1.2°C 32.8°F0.4°C 95% 4.0 mph N6.4 kmh N 5.0 mph8.0 kmh 29.61 in1002.7 mb 0.02 in0.5 mm 0.01 in/hr0.3 mm/hr 0.02 in0.5 mm
11:15 AM 33.8°F1.0°C 32.5°F0.3°C 95% 1.0 mph NNE1.6 kmh NNE 5.0 mph8.0 kmh 29.60 in1002.4 mb 0.03 in0.8 mm 0.04 in/hr1.0 mm/hr 0.03 in0.8 mm
11:31 AM 33.6°F0.9°C 32.3°F0.2°C 95% Calm Calm 4.0 mph6.4 kmh 29.61 in1002.7 mb 0.04 in1.0 mm 0.04 in/hr1.0 mm/hr 0.04 in1.0 mm
11:45 AM 33.6°F0.9°C 32.3°F0.2°C 95% 2.0 mph N3.2 kmh N 5.0 mph8.0 kmh 29.60 in1002.4 mb 0.04 in1.0 mm 0.00 in/hr0.0 mm/hr 0.04 in1.0 mm
12:01 PM 33.4°F0.8°C 32.1°F0.1°C 95% 3.0 mph N4.8 kmh N 6.0 mph9.7 kmh 29.57 in1001.4 mb 0.03 in0.8 mm 0.00 in/hr0.0 mm/hr 0.04 in1.0 mm
12:15 PM 33.5°F0.8°C 32.2°F0.1°C 95% 1.0 mph NW1.6 kmh NW 9.0 mph14.5 kmh 29.56 in1001.0 mb 0.04 in1.0 mm 0.04 in/hr1.0 mm/hr 0.05 in1.3 mm
12:31 PM 33.6°F0.9°C 32.3°F0.2°C 95% 4.0 mph N6.4 kmh N 8.0 mph12.9 kmh 29.53 in1000.0 mb 0.03 in0.8 mm 0.00 in/hr0.0 mm/hr 0.05 in1.3 mm
12:45 PM 33.6°F0.9°C 32.6°F0.3°C 96% 4.0 mph E6.4 kmh E 9.0 mph14.5 kmh 29.52 in999.7 mb 0.03 in0.8 mm 0.00 in/hr0.0 mm/hr 0.05 in1.3 mm
01:01 PM 33.4°F0.8°C 32.1°F0.1°C 95% 8.0 mph ENE12.9 kmh ENE 9.0 mph14.5 kmh 29.50 in999.0 mb 0.04 in1.0 mm 0.01 in/hr0.3 mm/hr 0.06 in1.5 mm
01:15 PM 33.4°F0.8°C 32.1°F0.1°C 95% 4.0 mph ENE6.4 kmh ENE 11.0 mph17.7 kmh 29.49 in998.6 mb 0.05 in1.3 mm 0.04 in/hr1.0 mm/hr 0.07 in1.8 mm
01:30 PM 33.3°F0.7°C 32.0°F0.0°C 95% 4.0 mph NNE6.4 kmh NNE 6.0 mph9.7 kmh 29.48 in998.3 mb 0.04 in1.0 mm 0.00 in/hr0.0 mm/hr 0.07 in1.8 mm
01:46 PM 33.1°F0.6°C 31.8°F-0.1°C 95% 4.0 mph NNW6.4 kmh NNW 5.0 mph8.0 kmh 29.48 in998.3 mb 0.05 in1.3 mm 0.04 in/hr1.0 mm/hr 0.08 in2.0 mm
02:01 PM 33.1°F0.6°C 31.8°F-0.1°C 95% 2.0 mph NNE3.2 kmh NNE 9.0 mph14.5 kmh 29.48 in998.3 mb 0.05 in1.3 mm 0.00 in/hr0.0 mm/hr 0.08 in2.0 mm
02:15 PM 33.0°F0.6°C 31.7°F-0.2°C 95% 1.0 mph N1.6 kmh N 4.0 mph6.4 kmh 29.47 in998.0 mb 0.06 in1.5 mm 0.04 in/hr1.0 mm/hr 0.09 in2.3 mm
02:30 PM 32.7°F0.4°C 31.7°F-0.2°C 96% 1.0 mph NW1.6 kmh NW 5.0 mph8.0 kmh 29.48 in998.3 mb 0.07 in1.8 mm 0.04 in/hr1.0 mm/hr 0.10 in2.5 mm
02:45 PM 32.4°F0.2°C 31.4°F-0.3°C 96% 6.0 mph N9.7 kmh N 10.0 mph16.1 kmh 29.50 in999.0 mb 0.10 in2.5 mm 0.12 in/hr3.0 mm/hr 0.13 in3.3 mm
03:01 PM 32.0°F0.0°C 31.0°F-0.6°C 96% 2.0 mph NNE3.2 kmh NNE 8.0 mph12.9 kmh 29.49 in998.6 mb 0.09 in2.3 mm 0.00 in/hr0.0 mm/hr 0.13 in3.3 mm
03:15 PM 31.7°F-0.2°C 30.7°F-0.7°C 96% 3.0 mph NNW4.8 kmh NNW 7.0 mph11.3 kmh 29.49 in998.6 mb 0.10 in2.5 mm 0.04 in/hr1.0 mm/hr 0.14 in3.6 mm
03:31 PM 31.0°F-0.6°C 30.0°F-1.1°C 96% 4.0 mph N6.4 kmh N 7.0 mph11.3 kmh 29.49 in998.6 mb 0.08 in2.0 mm 0.00 in/hr0.0 mm/hr 0.14 in3.6 mm
03:46 PM 30.5°F-0.8°C 29.5°F-1.4°C 96% 7.0 mph NNW11.3 kmh NNW 11.0 mph17.7 kmh 29.49 in998.6 mb 0.09 in2.3 mm 0.04 in/hr1.0 mm/hr 0.15 in3.8 mm
04:01 PM 29.6°F-1.3°C 28.6°F-1.9°C 96% 4.0 mph NW6.4 kmh NW 7.0 mph11.3 kmh 29.50 in999.0 mb 0.05 in1.3 mm 0.00 in/hr0.0 mm/hr 0.15 in3.8 mm
04:15 PM 28.9°F-1.7°C 27.7°F-2.4°C 95% 2.0 mph NNW3.2 kmh NNW 6.0 mph9.7 kmh 29.52 in999.7 mb 0.05 in1.3 mm 0.00 in/hr0.0 mm/hr 0.15 in3.8 mm
04:30 PM 28.6°F-1.9°C 27.4°F-2.6°C 95% 1.0 mph NW1.6 kmh NW 7.0 mph11.3 kmh 29.54 in1000.3 mb 0.02 in0.5 mm 0.00 in/hr0.0 mm/hr 0.15 in3.8 mm
04:45 PM 28.0°F-2.2°C 26.5°F-3.1°C 94% 4.0 mph NNE6.4 kmh NNE 10.0 mph16.1 kmh 29.56 in1001.0 mb 0.02 in0.5 mm 0.00 in/hr0.0 mm/hr 0.15 in3.8 mm
05:01 PM 27.7°F-2.4°C 26.5°F-3.1°C 95% 3.0 mph N4.8 kmh N 8.0 mph12.9 kmh 29.57 in1001.4 mb 0.00 in0.0 mm 0.00 in/hr0.0 mm/hr 0.15 in3.8 mm
05:15 PM 27.4°F-2.6°C 25.9°F-3.4°C 94% 7.0 mph N11.3 kmh N 10.0 mph16.1 kmh 29.58 in1001.7 mb 0.00 in0.0 mm 0.00 in/hr0.0 mm/hr 0.15 in3.8 mm
05:30 PM 27.1°F-2.7°C 25.6°F-3.6°C 94% 5.0 mph NW8.0 kmh NW 8.0 mph12.9 kmh 29.61 in1002.7 mb 0.00 in0.0 mm 0.00 in/hr0.0 mm/hr 0.15 in3.8 mm
05:45 PM 27.0°F-2.8°C 25.5°F-3.6°C 94% 2.0 mph WNW3.2 kmh WNW 7.0 mph11.3 kmh 29.63 in1003.4 mb 0.00 in0.0 mm 0.00 in/hr0.0 mm/hr 0.15 in3.8 mm
06:01 PM 26.6°F-3.0°C 24.9°F-3.9°C 93% 4.0 mph NW6.4 kmh NW 9.0 mph14.5 kmh 29.65 in1004.1 mb 0.00 in0.0 mm 0.00 in/hr0.0 mm/hr 0.15 in3.8 mm
06:16 PM 26.4°F-3.1°C 24.7°F-4.1°C 93% 4.0 mph NW6.4 kmh NW 9.0 mph14.5 kmh 29.66 in1004.4 mb 0.00 in0.0 mm 0.00 in/hr0.0 mm/hr 0.15 in3.8 mm
06:31 PM 26.1°F-3.3°C 24.4°F-4.2°C 93% 3.0 mph NW4.8 kmh NW 10.0 mph16.1 kmh 29.68 in1005.1 mb 0.00 in0.0 mm 0.00 in/hr0.0 mm/hr 0.15 in3.8 mm
06:45 PM 25.8°F-3.4°C 23.8°F-4.6°C 92% 3.0 mph NW4.8 kmh NW 9.0 mph14.5 kmh 29.69 in1005.4 mb 0.00 in0.0 mm 0.00 in/hr0.0 mm/hr 0.15 in3.8 mm
07:01 PM 25.4°F-3.7°C 23.4°F-4.8°C 92% 2.0 mph NW3.2 kmh NW 7.0 mph11.3 kmh 29.70 in1005.8 mb 0.00 in0.0 mm 0.00 in/hr0.0 mm/hr 0.15 in3.8 mm
07:16 PM 25.1°F-3.8°C 23.1°F-4.9°C 92% 4.0 mph NW6.4 kmh NW 11.0 mph17.7 kmh 29.71 in1006.1 mb 0.00 in0.0 mm 0.00 in/hr0.0 mm/hr 0.15 in3.8 mm
07:31 PM 24.7°F-4.1°C 22.5°F-5.3°C 91% 3.0 mph N4.8 kmh N 8.0 mph12.9 kmh 29.72 in1006.4 mb 0.00 in0.0 mm 0.00 in/hr0.0 mm/hr 0.15 in3.8 mm
07:45 PM 24.2°F-4.3°C 22.0°F-5.6°C 91% 6.0 mph NW9.7 kmh NW 8.0 mph12.9 kmh 29.74 in1007.1 mb 0.00 in0.0 mm 0.00 in/hr0.0 mm/hr 0.15 in3.8 mm
08:01 PM 24.2°F-4.3°C 22.2°F-5.4°C 92% 4.0 mph NNW6.4 kmh NNW 8.0 mph12.9 kmh 29.76 in1007.8 mb 0.00 in0.0 mm 0.00 in/hr0.0 mm/hr 0.15 in3.8 mm
08:15 PM 24.3°F-4.3°C 22.3°F-5.4°C 92% 4.0 mph NW6.4 kmh NW 6.0 mph9.7 kmh 29.77 in1008.1 mb 0.00 in0.0 mm 0.00 in/hr0.0 mm/hr 0.15 in3.8 mm
08:30 PM 23.6°F-4.7°C 20.6°F-6.3°C 88% 3.0 mph NW4.8 kmh NW 7.0 mph11.3 kmh 29.79 in1008.8 mb 0.00 in0.0 mm 0.00 in/hr0.0 mm/hr 0.15 in3.8 mm
08:45 PM 22.9°F-5.1°C 20.2°F-6.6°C 89% 4.0 mph NW6.4 kmh NW 7.0 mph11.3 kmh 29.81 in1009.5 mb 0.00 in0.0 mm 0.00 in/hr0.0 mm/hr 0.15 in3.8 mm
09:01 PM 23.2°F-4.9°C 20.5°F-6.4°C 89% 4.0 mph NW6.4 kmh NW 8.0 mph12.9 kmh 29.83 in1010.2 mb 0.00 in0.0 mm 0.00 in/hr0.0 mm/hr 0.15 in3.8 mm
09:15 PM 22.7°F-5.2°C 19.4°F-7.0°C 87% 6.0 mph W9.7 kmh W 11.0 mph17.7 kmh 29.84 in1010.5 mb 0.00 in0.0 mm 0.00 in/hr0.0 mm/hr 0.15 in3.8 mm
09:30 PM 22.0°F-5.6°C 18.5°F-7.5°C 86% 6.0 mph NW9.7 kmh NW 10.0 mph16.1 kmh 29.85 in1010.8 mb 0.00 in0.0 mm 0.00 in/hr0.0 mm/hr 0.15 in3.8 mm
09:45 PM 21.6°F-5.8°C 18.3°F-7.6°C 87% 3.0 mph NNW4.8 kmh NNW 6.0 mph9.7 kmh 29.86 in1011.2 mb 0.00 in0.0 mm 0.00 in/hr0.0 mm/hr 0.15 in3.8 mm
10:01 PM 21.6°F-5.8°C 18.6°F-7.4°C 88% 6.0 mph NW9.7 kmh NW 11.0 mph17.7 kmh 29.88 in1011.9 mb 0.00 in0.0 mm 0.00 in/hr0.0 mm/hr 0.15 in3.8 mm
10:15 PM 21.3°F-5.9°C 17.5°F-8.1°C 85% 4.0 mph NW6.4 kmh NW 12.0 mph19.3 kmh 29.89 in1012.2 mb 0.00 in0.0 mm 0.00 in/hr0.0 mm/hr 0.15 in3.8 mm
10:31 PM 20.8°F-6.2°C 17.6°F-8.0°C 87% 6.0 mph NW9.7 kmh NW 8.0 mph12.9 kmh 29.91 in1012.9 mb 0.00 in0.0 mm 0.00 in/hr0.0 mm/hr 0.15 in3.8 mm
10:45 PM 20.6°F-6.3°C 16.8°F-8.4°C 85% 3.0 mph NW4.8 kmh NW 9.0 mph14.5 kmh 29.91 in1012.9 mb 0.00 in0.0 mm 0.00 in/hr0.0 mm/hr 0.15 in3.8 mm
11:01 PM 20.3°F-6.5°C 16.8°F-8.4°C 86% 3.0 mph NW4.8 kmh NW 8.0 mph12.9 kmh 29.92 in1013.2 mb 0.00 in0.0 mm 0.00 in/hr0.0 mm/hr 0.15 in3.8 mm
11:15 PM 19.8°F-6.8°C 16.3°F-8.7°C 86% 2.0 mph NNW3.2 kmh NNW 6.0 mph9.7 kmh 29.93 in1013.5 mb 0.00 in0.0 mm 0.00 in/hr0.0 mm/hr 0.15 in3.8 mm
11:30 PM 19.4°F-7.0°C 15.6°F-9.1°C 85% 2.0 mph NW3.2 kmh NW 8.0 mph12.9 kmh 29.94 in1013.9 mb 0.00 in0.0 mm 0.00 in/hr0.0 mm/hr 0.15 in3.8 mm
11:45 PM 18.8°F-7.3°C 15.1°F-9.4°C 85% 6.0 mph NW9.7 kmh NW 8.0 mph12.9 kmh 29.95 in1014.2 mb 0.00 in0.0 mm 0.00 in/hr0.0 mm/hr 0.15 in3.8 mm